Terminal Aerodrome Forecast
Issued by NWS

Home | Current Version | Previous Version | Text Only | Print | Product List | Glossary On
Versions: 1 2 3 4 5 6 7 8 9 10 11 12
000
FTUS45 KABQ 230500 RRA
TAFFMN
TAF
KFMN 230540Z 2306/2406 VRB06KT P6SM VCSH SCT070 BKN090
     FM230800 28011G18KT P6SM VCSH SCT050 BKN080
     FM231200 28012G21KT P6SM FEW040 SCT100
     FM231730 29028G37KT P6SM FEW080
     FM240130 30011KT P6SM FEW120=

USA.gov is the U.S. government's official web portal to all federal, state and local government web resources and services.